Time;durP1;ratioP1;P1;durP2;ratioP2;P2;SDS_P1;SDS_P2;PMS_P1;PMS_P2;Temp;Humidity;BMP_temperature;BMP_pressure;BME280_temperature;BME280_humidity;BME280_pressure;Samples;Min_cycle;Max_cycle;Signal;HPM_P1;HPM_P2
2022/07/31 00:01:50;;;;;;;1.75;1.00;;;25.90;83.80;;;;;;5031747;28;20577;-27
2022/07/31 00:04:16;;;;;;;0.93;0.70;;;25.90;83.70;;;;;;5031678;28;20022;-27
2022/07/31 00:06:43;;;;;;;1.38;0.90;;;25.90;83.80;;;;;;5031670;28;20099;-27
2022/07/31 00:09:09;;;;;;;1.02;0.90;;;25.90;83.80;;;;;;5031396;28;20493;-27
2022/07/31 00:11:34;;;;;;;0.93;0.80;;;25.90;83.80;;;;;;5031638;28;20033;-27
2022/07/31 00:14:00;;;;;;;1.02;0.77;;;25.90;83.80;;;;;;5031506;28;20414;-27
2022/07/31 00:16:26;;;;;;;1.63;0.90;;;25.80;83.60;;;;;;5031641;28;20371;-27
2022/07/31 00:18:52;;;;;;;1.13;0.90;;;25.90;83.70;;;;;;5013705;28;20104;-27
2022/07/31 00:21:17;;;;;;;3.20;0.98;;;25.80;83.60;;;;;;5031521;28;20390;-27
2022/07/31 00:23:43;;;;;;;1.25;0.80;;;25.90;83.70;;;;;;5033048;28;20017;-27
2022/07/31 00:26:09;;;;;;;1.48;0.90;;;25.80;83.60;;;;;;5035359;28;20034;-27
2022/07/31 00:28:36;;;;;;;1.20;0.90;;;25.90;83.70;;;;;;5034961;28;20104;-27
2022/07/31 00:31:02;;;;;;;1.88;1.00;;;25.80;83.60;;;;;;5035480;28;20475;-27
2022/07/31 00:33:28;;;;;;;2.35;0.90;;;25.80;83.60;;;;;;5035052;28;20120;-27
2022/07/31 00:35:54;;;;;;;1.73;0.90;;;25.80;83.60;;;;;;5035091;28;20105;-27
2022/07/31 00:38:20;;;;;;;2.35;1.00;;;25.80;83.60;;;;;;5034939;28;20021;-27
2022/07/31 00:40:47;;;;;;;1.48;1.00;;;25.80;83.50;;;;;;5035096;28;20025;-27
2022/07/31 00:43:14;;;;;;;2.25;1.00;;;25.80;83.50;;;;;;5034776;28;20037;-27
2022/07/31 00:45:40;;;;;;;0.98;0.82;;;25.80;83.60;;;;;;5034979;28;20026;-27
2022/07/31 00:48:06;;;;;;;1.25;1.00;;;25.80;83.60;;;;;;5034918;28;20033;-27
2022/07/31 00:50:31;;;;;;;1.77;0.98;;;25.80;83.50;;;;;;5016897;28;20164;-27
2022/07/31 00:52:57;;;;;;;1.08;0.90;;;25.80;83.50;;;;;;5034809;28;20148;-27
2022/07/31 00:55:23;;;;;;;1.42;0.80;;;25.80;83.50;;;;;;5034834;28;20030;-26
2022/07/31 00:57:48;;;;;;;1.90;0.80;;;25.80;83.50;;;;;;5035095;28;20030;-26
2022/07/31 01:00:15;;;;;;;1.45;0.90;;;25.80;83.50;;;;;;5034593;28;20087;-26
2022/07/31 01:02:40;;;;;;;1.08;0.75;;;25.80;83.40;;;;;;5034712;28;20049;-26
2022/07/31 01:05:06;;;;;;;1.60;0.90;;;25.80;83.50;;;;;;5034522;28;20053;-26
2022/07/31 01:07:32;;;;;;;1.27;0.88;;;25.70;83.40;;;;;;5034465;28;20395;-26
2022/07/31 01:10:01;;;;;;;1.20;0.80;;;25.80;83.40;;;;;;5034256;28;20040;-26
2022/07/31 01:12:34;;;;;;;1.92;0.95;;;25.80;83.40;;;;;;5034342;28;20048;-26
2022/07/31 01:15:03;;;;;;;1.53;1.13;;;25.80;83.50;;;;;;5034486;28;20068;-26
2022/07/31 01:17:30;;;;;;;1.15;0.70;;;25.80;83.50;;;;;;5034384;28;20026;-26
2022/07/31 01:19:57;;;;;;;0.90;0.73;;;25.70;83.40;;;;;;5034164;28;20026;-26
2022/07/31 01:23:10;;;;;;;1.15;0.77;;;25.70;83.40;;;;;;5034324;28;20026;-26
2022/07/31 01:26:12;;;;;;;2.13;1.10;;;25.70;83.40;;;;;;5033867;28;20120;-26
2022/07/31 01:28:58;;;;;;;1.55;0.85;;;25.70;83.40;;;;;;5034013;28;20032;-26
2022/07/31 01:31:34;;;;;;;1.42;0.90;;;25.80;83.40;;;;;;5034020;28;20033;-26
2022/07/31 01:34:20;;;;;;;1.35;0.88;;;25.70;83.40;;;;;;5033607;28;20529;-26
2022/07/31 01:36:55;;;;;;;1.40;0.98;;;25.70;83.40;;;;;;5033175;28;20124;-26
2022/07/31 01:39:22;;;;;;;1.23;0.70;;;25.70;83.40;;;;;;5033748;28;20072;-26
2022/07/31 01:41:50;;;;;;;1.00;0.77;;;25.70;83.40;;;;;;5033887;28;20029;-26
2022/07/31 01:44:17;;;;;;;2.22;0.90;;;25.70;84.10;;;;;;5033844;28;20092;-26
2022/07/31 01:46:45;;;;;;;4.38;1.10;;;25.70;83.40;;;;;;5033904;28;20071;-26
2022/07/31 01:49:13;;;;;;;3.28;1.00;;;25.60;83.30;;;;;;5033589;28;20057;-26
2022/07/31 01:51:42;;;;;;;1.60;0.80;;;25.60;83.30;;;;;;5033668;28;20030;-26
2022/07/31 01:54:09;;;;;;;2.22;1.13;;;25.60;83.30;;;;;;5033539;28;20052;-26
2022/07/31 01:56:36;;;;;;;2.13;0.90;;;25.60;84.00;;;;;;5033664;28;20563;-26
2022/07/31 01:59:04;;;;;;;1.60;0.80;;;25.60;83.30;;;;;;5033437;28;20025;-26
2022/07/31 02:01:31;;;;;;;3.40;1.05;;;25.60;83.30;;;;;;5033600;28;20025;-26
2022/07/31 02:03:58;;;;;;;1.73;0.80;;;25.60;83.30;;;;;;5033425;28;20029;-26
2022/07/31 02:06:25;;;;;;;1.83;0.95;;;25.60;83.40;;;;;;5033355;28;20021;-26
2022/07/31 02:08:52;;;;;;;1.67;0.90;;;25.60;83.30;;;;;;5033283;28;20289;-26
2022/07/31 02:11:19;;;;;;;1.33;0.90;;;25.60;83.30;;;;;;5033291;28;20029;-26
2022/07/31 02:13:46;;;;;;;1.35;0.85;;;25.60;83.30;;;;;;5033284;28;20104;-26
2022/07/31 02:16:14;;;;;;;0.95;0.80;;;25.60;83.30;;;;;;5033303;28;20029;-26
2022/07/31 02:18:41;;;;;;;1.45;1.15;;;25.50;83.20;;;;;;5032978;28;20049;-26
2022/07/31 02:21:07;;;;;;;1.38;0.82;;;25.50;83.20;;;;;;5033123;28;20025;-26
2022/07/31 02:23:33;;;;;;;3.83;0.95;;;25.50;83.20;;;;;;5033080;28;20035;-26
2022/07/31 02:26:02;;;;;;;0.82;0.77;;;25.50;83.20;;;;;;5033090;28;20030;-26
2022/07/31 02:28:29;;;;;;;1.83;0.82;;;25.50;83.30;;;;;;5032901;28;20029;-26
2022/07/31 02:30:56;;;;;;;1.63;1.00;;;25.50;83.30;;;;;;5032928;28;20379;-26
2022/07/31 02:33:24;;;;;;;1.30;0.73;;;25.50;83.20;;;;;;5032684;28;20104;-26
2022/07/31 02:35:54;;;;;;;1.67;1.10;;;25.50;83.30;;;;;;5032808;28;20017;-26
2022/07/31 02:38:22;;;;;;;1.90;0.90;;;25.50;83.30;;;;;;5032655;28;20025;-26
2022/07/31 02:40:50;;;;;;;1.27;0.80;;;25.50;83.20;;;;;;5033017;28;20052;-26
2022/07/31 02:43:16;;;;;;;1.13;0.85;;;25.50;83.30;;;;;;5032729;28;20033;-26
2022/07/31 02:45:42;;;;;;;1.38;1.02;;;25.50;83.30;;;;;;5032935;28;20025;-26
2022/07/31 02:48:08;;;;;;;1.85;1.10;;;25.50;83.30;;;;;;5032391;28;20030;-26
2022/07/31 02:50:35;;;;;;;1.88;0.90;;;25.40;83.20;;;;;;5032706;28;20025;-26
2022/07/31 02:53:02;;;;;;;1.80;0.90;;;25.50;83.30;;;;;;5032498;28;20040;-26
2022/07/31 02:55:27;;;;;;;1.27;0.95;;;25.40;83.30;;;;;;5032583;28;20517;-26
2022/07/31 02:57:53;;;;;;;3.17;0.82;;;25.40;83.30;;;;;;5032441;28;20104;-26
2022/07/31 03:00:25;;;;;;;1.08;0.90;;;25.40;83.30;;;;;;5032235;28;20029;-26
2022/07/31 03:02:54;;;;;;;1.63;1.10;;;25.40;83.30;;;;;;5032283;28;20032;-26
2022/07/31 03:05:20;;;;;;;1.52;0.90;;;25.40;83.40;;;;;;5032312;28;20096;-26
2022/07/31 03:07:46;;;;;;;1.75;0.93;;;25.40;83.40;;;;;;5032504;28;20067;-26
2022/07/31 03:10:12;;;;;;;2.17;1.10;;;25.40;83.30;;;;;;5032111;28;20025;-26
2022/07/31 03:12:44;;;;;;;1.52;1.00;;;25.40;83.30;;;;;;5032269;28;20028;-26
2022/07/31 03:15:15;;;;;;;1.65;1.13;;;25.30;83.20;;;;;;5032130;28;20021;-26
2022/07/31 03:17:42;;;;;;;1.98;1.10;;;25.30;83.20;;;;;;5032239;28;20092;-26
2022/07/31 03:20:09;;;;;;;1.83;0.95;;;25.30;83.20;;;;;;5031998;28;20027;-26
2022/07/31 03:22:35;;;;;;;0.85;0.80;;;25.30;83.20;;;;;;5032128;28;20148;-26
2022/07/31 03:25:03;;;;;;;2.08;1.05;;;25.30;83.20;;;;;;5032043;28;20483;-26
2022/07/31 03:27:29;;;;;;;1.13;0.88;;;25.30;83.30;;;;;;5032083;28;20087;-26
2022/07/31 03:29:54;;;;;;;1.73;1.08;;;25.30;83.30;;;;;;5031679;28;20490;-26
2022/07/31 03:32:20;;;;;;;1.30;0.80;;;25.30;83.30;;;;;;5031921;28;20022;-26
2022/07/31 03:34:46;;;;;;;1.17;0.95;;;25.30;83.30;;;;;;5031832;28;20534;-26
2022/07/31 03:37:13;;;;;;;1.10;0.80;;;25.30;83.30;;;;;;5031922;28;20029;-26
2022/07/31 03:39:39;;;;;;;1.30;0.90;;;25.30;83.40;;;;;;5031752;28;20124;-26
2022/07/31 03:42:08;;;;;;;1.05;0.90;;;25.20;83.20;;;;;;5031949;28;20391;-26
2022/07/31 03:44:35;;;;;;;1.85;1.00;;;25.30;83.40;;;;;;5031824;28;20025;-26
2022/07/31 03:47:02;;;;;;;1.08;0.80;;;25.20;83.30;;;;;;5031896;28;20022;-26
2022/07/31 03:49:29;;;;;;;1.52;0.98;;;25.30;83.30;;;;;;5031713;28;20025;-26
2022/07/31 03:51:55;;;;;;;1.10;0.90;;;25.20;83.30;;;;;;5031817;28;20029;-26
2022/07/31 03:54:20;;;;;;;1.60;0.90;;;25.20;83.30;;;;;;5031734;28;20025;-26
2022/07/31 03:56:49;;;;;;;1.88;1.05;;;25.20;83.30;;;;;;5031874;28;20324;-26
2022/07/31 03:59:15;;;;;;;2.00;0.95;;;25.20;83.30;;;;;;5016329;28;20474;-26
2022/07/31 04:01:42;;;;;;;1.73;1.10;;;25.20;83.30;;;;;;5035737;28;20367;-26
2022/07/31 04:04:08;;;;;;;2.42;0.90;;;25.20;83.30;;;;;;5035729;28;20360;-26
2022/07/31 04:06:33;;;;;;;2.05;0.95;;;25.10;83.20;;;;;;5035766;28;20028;-26
2022/07/31 04:09:02;;;;;;;4.40;1.23;;;25.20;83.30;;;;;;5035904;28;20025;-26
2022/07/31 04:11:28;;;;;;;1.95;1.00;;;25.10;83.20;;;;;;5035497;28;20025;-26
2022/07/31 04:13:54;;;;;;;1.73;1.02;;;25.20;83.30;;;;;;5035478;28;20087;-26
2022/07/31 04:16:20;;;;;;;2.15;1.17;;;25.10;83.30;;;;;;5035488;28;20026;-26
2022/07/31 04:18:46;;;;;;;1.58;0.90;;;25.10;83.20;;;;;;5035308;28;20360;-26
2022/07/31 04:21:12;;;;;;;1.10;1.00;;;25.10;83.20;;;;;;5035452;28;20021;-26
2022/07/31 04:23:38;;;;;;;1.23;0.90;;;25.10;83.40;;;;;;5035336;28;20408;-26
2022/07/31 04:26:03;;;;;;;1.67;1.08;;;25.10;83.40;;;;;;5035391;28;20022;-26
2022/07/31 04:28:29;;;;;;;1.25;0.88;;;25.00;83.30;;;;;;5035098;28;20037;-26
2022/07/31 04:30:55;;;;;;;1.20;0.95;;;25.10;83.30;;;;;;5035252;28;20363;-26
2022/07/31 04:33:21;;;;;;;1.23;0.98;;;25.00;83.20;;;;;;5035211;28;20029;-26
2022/07/31 04:35:46;;;;;;;1.40;0.80;;;25.10;83.30;;;;;;5035171;28;20036;-26
2022/07/31 04:38:13;;;;;;;1.30;1.00;;;25.00;83.20;;;;;;5034995;28;20032;-26
2022/07/31 04:40:38;;;;;;;2.40;1.13;;;25.10;83.40;;;;;;5034976;28;20033;-26
2022/07/31 04:43:04;;;;;;;2.22;1.00;;;25.10;83.40;;;;;;5034963;28;20036;-26
2022/07/31 04:45:30;;;;;;;1.20;1.10;;;25.00;83.20;;;;;;5034977;28;20029;-26
2022/07/31 04:47:56;;;;;;;1.42;0.95;;;25.00;83.20;;;;;;5034953;28;20487;-26
2022/07/31 04:50:21;;;;;;;2.33;0.90;;;25.00;83.20;;;;;;5034647;28;20025;-26
2022/07/31 04:52:47;;;;;;;1.20;1.10;;;25.00;83.20;;;;;;5034848;28;20084;-26
2022/07/31 04:55:13;;;;;;;1.63;0.80;;;25.00;83.20;;;;;;5034605;28;20021;-26
2022/07/31 04:57:38;;;;;;;1.50;1.00;;;25.00;83.30;;;;;;5034759;28;20124;-26
2022/07/31 05:00:09;;;;;;;1.02;0.88;;;25.00;83.20;;;;;;5034484;28;20032;-26
2022/07/31 05:02:35;;;;;;;1.23;0.90;;;25.00;83.20;;;;;;5034751;28;20028;-26
2022/07/31 05:05:01;;;;;;;2.97;1.10;;;25.00;83.20;;;;;;5034561;28;20104;-26
2022/07/31 05:07:26;;;;;;;1.10;0.90;;;25.00;83.20;;;;;;5034655;28;20079;-26
2022/07/31 05:09:52;;;;;;;1.30;0.90;;;25.00;84.00;;;;;;5033990;28;20033;-26
2022/07/31 05:12:17;;;;;;;1.20;1.02;;;25.00;83.30;;;;;;5034546;28;20025;-26
2022/07/31 05:14:43;;;;;;;2.17;0.70;;;25.00;83.30;;;;;;5034377;28;20089;-26
2022/07/31 05:17:09;;;;;;;1.30;1.00;;;24.90;83.30;;;;;;5034482;28;20080;-26
2022/07/31 05:19:34;;;;;;;1.58;0.93;;;25.00;83.30;;;;;;5034223;28;20025;-26
2022/07/31 05:22:00;;;;;;;1.42;1.02;;;24.90;83.30;;;;;;5034372;28;20024;-26
2022/07/31 05:24:26;;;;;;;1.65;1.08;;;24.90;83.30;;;;;;5034099;28;20387;-26
2022/07/31 05:26:51;;;;;;;1.75;0.90;;;25.00;83.40;;;;;;5034257;28;20483;-26
2022/07/31 05:29:17;;;;;;;1.90;1.10;;;24.90;83.40;;;;;;5033899;28;20105;-26
2022/07/31 05:31:43;;;;;;;1.27;0.90;;;24.90;83.40;;;;;;5034089;28;20490;-26
2022/07/31 05:34:09;;;;;;;1.40;1.00;;;24.90;83.40;;;;;;5034272;28;20517;-26
2022/07/31 05:36:34;;;;;;;1.55;0.90;;;24.90;83.40;;;;;;5034102;28;20108;-26
2022/07/31 05:39:00;;;;;;;1.42;0.90;;;24.90;83.40;;;;;;5033645;28;20100;-26
2022/07/31 05:41:27;;;;;;;2.97;1.10;;;24.90;83.50;;;;;;5033975;28;20030;-26
2022/07/31 05:43:52;;;;;;;1.30;1.00;;;24.90;83.50;;;;;;5034094;28;20364;-26
2022/07/31 05:46:18;;;;;;;1.10;1.00;;;24.90;83.50;;;;;;5033882;28;20105;-26
2022/07/31 05:48:44;;;;;;;1.40;1.15;;;24.90;83.50;;;;;;5033621;28;20025;-26
2022/07/31 05:51:11;;;;;;;1.73;1.05;;;24.90;83.50;;;;;;5033803;28;20026;-26
2022/07/31 05:53:38;;;;;;;1.15;0.82;;;24.90;83.60;;;;;;5033652;28;20258;-26
2022/07/31 05:56:04;;;;;;;1.20;0.90;;;24.90;83.70;;;;;;5016059;28;20022;-26
2022/07/31 05:58:30;;;;;;;1.35;1.05;;;24.90;83.60;;;;;;5033390;28;20026;-26
2022/07/31 06:00:56;;;;;;;1.30;0.80;;;24.90;83.70;;;;;;5033656;28;20021;-26
2022/07/31 06:03:24;;;;;;;1.23;0.90;;;24.90;83.70;;;;;;5033444;28;20026;-26
2022/07/31 06:05:50;;;;;;;1.23;1.10;;;24.90;84.20;;;;;;5033556;28;20441;-26
2022/07/31 06:08:16;;;;;;;1.50;1.00;;;24.90;83.80;;;;;;5033231;28;20022;-26
2022/07/31 06:10:42;;;;;;;2.45;1.20;;;24.90;83.80;;;;;;5033395;28;20025;-26
2022/07/31 06:13:08;;;;;;;1.38;0.80;;;24.90;83.80;;;;;;5033416;28;20033;-26
2022/07/31 06:15:34;;;;;;;1.10;1.00;;;24.90;83.80;;;;;;5033324;28;20022;-25
2022/07/31 06:18:00;;;;;;;1.08;0.82;;;24.90;83.90;;;;;;5033186;28;20104;-25
2022/07/31 06:20:26;;;;;;;2.55;1.10;;;24.90;83.90;;;;;;5032853;28;20475;-26
2022/07/31 06:22:53;;;;;;;1.10;1.00;;;24.80;84.00;;;;;;5032732;28;20029;-26
2022/07/31 06:25:19;;;;;;;1.10;0.90;;;24.80;84.00;;;;;;5033084;28;20029;-26
2022/07/31 06:27:45;;;;;;;1.25;0.90;;;24.80;84.00;;;;;;5032981;28;20033;-26
2022/07/31 06:30:12;;;;;;;1.85;1.10;;;24.80;84.10;;;;;;5032792;28;20049;-25
2022/07/31 06:32:39;;;;;;;1.52;0.90;;;24.80;84.10;;;;;;5032991;28;20095;-26
2022/07/31 06:35:05;;;;;;;1.73;0.90;;;24.80;84.20;;;;;;5032799;28;20029;-26
2022/07/31 06:37:31;;;;;;;1.80;1.00;;;24.80;84.30;;;;;;5032761;28;20472;-26
2022/07/31 06:39:57;;;;;;;1.17;0.80;;;24.80;84.30;;;;;;5032675;28;20076;-26
2022/07/31 06:42:24;;;;;;;1.33;0.90;;;24.80;84.30;;;;;;5032664;28;20025;-26
2022/07/31 06:44:50;;;;;;;1.50;0.95;;;24.80;84.40;;;;;;5033019;28;20021;-26
2022/07/31 06:47:17;;;;;;;4.20;1.00;;;24.80;84.40;;;;;;5033219;28;20029;-26
2022/07/31 06:49:43;;;;;;;0.93;0.80;;;24.80;84.50;;;;;;5032384;28;20021;-26
2022/07/31 06:52:08;;;;;;;0.93;0.70;;;24.80;84.50;;;;;;5032554;28;20045;-26
2022/07/31 06:54:34;;;;;;;0.98;0.75;;;24.80;84.60;;;;;;5032526;28;20068;-26
2022/07/31 06:57:00;;;;;;;1.33;0.93;;;24.80;84.50;;;;;;5032510;28;20013;-26
2022/07/31 06:59:25;;;;;;;2.13;0.93;;;24.80;84.60;;;;;;5032364;28;20074;-26
2022/07/31 07:01:51;;;;;;;1.38;0.80;;;24.70;84.60;;;;;;5032473;28;20466;-26
2022/07/31 07:04:17;;;;;;;2.17;1.00;;;24.80;84.70;;;;;;5032361;28;20026;-26
2022/07/31 07:06:42;;;;;;;1.10;0.73;;;24.80;84.70;;;;;;5032322;28;20028;-26
2022/07/31 07:09:08;;;;;;;2.60;0.80;;;24.80;84.70;;;;;;5032128;28;20104;-26
2022/07/31 07:11:33;;;;;;;1.17;0.90;;;24.70;84.80;;;;;;5032226;28;20029;-25
2022/07/31 07:13:59;;;;;;;1.10;1.00;;;24.80;84.70;;;;;;5032262;28;20018;-26
2022/07/31 07:16:25;;;;;;;1.00;0.90;;;24.80;84.60;;;;;;5032641;28;20429;-26
2022/07/31 07:18:51;;;;;;;1.33;0.80;;;24.80;84.70;;;;;;5032027;28;20372;-26
2022/07/31 07:21:17;;;;;;;1.33;0.95;;;24.80;84.70;;;;;;5032083;28;20021;-26
2022/07/31 07:23:43;;;;;;;1.20;1.00;;;24.80;84.70;;;;;;5032088;28;20441;-26
2022/07/31 07:26:08;;;;;;;0.90;0.80;;;24.80;84.70;;;;;;5032099;28;20079;-26
2022/07/31 07:28:34;;;;;;;1.58;0.93;;;24.80;84.70;;;;;;5032159;28;20071;-26
2022/07/31 07:31:01;;;;;;;1.25;0.93;;;24.90;84.80;;;;;;5031974;28;20036;-26
2022/07/31 07:33:27;;;;;;;1.17;1.00;;;24.80;84.70;;;;;;5031766;28;20143;-26
2022/07/31 07:35:52;;;;;;;2.50;0.88;;;24.80;84.70;;;;;;5031970;28;20530;-25
2022/07/31 07:38:18;;;;;;;1.00;0.90;;;24.90;84.80;;;;;;5031748;28;20053;-26
2022/07/31 07:40:43;;;;;;;1.45;1.00;;;24.90;84.70;;;;;;5031898;28;20025;-26
2022/07/31 07:43:09;;;;;;;1.58;0.80;;;24.90;84.70;;;;;;5031886;28;20022;-26
2022/07/31 07:45:35;;;;;;;2.47;1.10;;;24.90;84.70;;;;;;5031950;28;20398;-26
2022/07/31 07:48:00;;;;;;;0.93;0.82;;;24.90;84.70;;;;;;5031824;28;20540;-26
2022/07/31 07:50:26;;;;;;;1.88;0.80;;;24.90;84.60;;;;;;5031555;28;20026;-26
2022/07/31 07:52:52;;;;;;;1.10;1.00;;;24.90;84.60;;;;;;5031837;28;20029;-26
2022/07/31 07:55:17;;;;;;;2.13;0.98;;;24.90;84.60;;;;;;5031740;28;20021;-26
2022/07/31 07:57:44;;;;;;;1.63;0.88;;;24.90;84.60;;;;;;5031772;28;20032;-26
2022/07/31 08:00:11;;;;;;;1.17;0.90;;;24.90;84.60;;;;;;5031597;28;20044;-26
2022/07/31 08:02:37;;;;;;;1.50;0.80;;;24.90;84.60;;;;;;5031802;28;20026;-26
2022/07/31 08:05:03;;;;;;;1.67;0.90;;;24.90;84.60;;;;;;5031631;28;20475;-26
2022/07/31 08:07:31;;;;;;;1.10;1.00;;;25.00;84.60;;;;;;5031683;28;20053;-26
2022/07/31 08:09:58;;;;;;;1.25;1.10;;;25.00;84.70;;;;;;5031381;28;20025;-26
2022/07/31 08:12:25;;;;;;;1.20;0.90;;;25.00;84.70;;;;;;5031694;28;20067;-26
2022/07/31 08:14:51;;;;;;;1.17;0.80;;;24.90;84.70;;;;;;5031650;28;20025;-26
2022/07/31 08:17:17;;;;;;;1.23;0.90;;;24.90;84.70;;;;;;5031483;28;20023;-26
2022/07/31 08:19:43;;;;;;;1.00;0.90;;;25.00;84.70;;;;;;5031389;28;20022;-26
2022/07/31 08:22:09;;;;;;;1.23;0.95;;;25.00;84.90;;;;;;5031571;28;20041;-26
2022/07/31 08:24:34;;;;;;;0.93;0.85;;;25.00;84.80;;;;;;5031419;28;20103;-26
2022/07/31 08:29:44;;;;;;;;;;;25.00;84.90;;;;;;5031907;28;20114;-26
2022/07/31 08:32:13;;;;;;;1.00;0.80;;;25.00;84.90;;;;;;5031777;28;19972;-26
2022/07/31 08:34:39;;;;;;;1.00;0.70;;;25.00;85.00;;;;;;5031291;28;20037;-26
2022/07/31 08:37:06;;;;;;;1.10;1.00;;;25.00;85.00;;;;;;5031450;28;20483;-26
2022/07/31 08:39:35;;;;;;;1.20;0.90;;;25.00;84.90;;;;;;5031363;28;20033;-26
2022/07/31 08:42:08;;;;;;;0.80;0.73;;;25.00;84.90;;;;;;5031404;28;20087;-26
2022/07/31 08:44:36;;;;;;;1.42;0.88;;;25.10;84.90;;;;;;5032430;28;20024;-26
2022/07/31 08:47:06;;;;;;;1.38;0.93;;;25.00;84.80;;;;;;5035019;28;20046;-26
2022/07/31 08:49:38;;;;;;;0.80;0.80;;;25.10;84.80;;;;;;5034785;28;20045;-25
2022/07/31 08:52:04;;;;;;;1.08;0.90;;;25.10;84.80;;;;;;5035181;28;20065;-26
2022/07/31 08:54:34;;;;;;;1.48;0.85;;;25.10;84.80;;;;;;5034783;28;20022;-26
2022/07/31 08:56:59;;;;;;;1.60;1.00;;;25.10;84.80;;;;;;5034678;28;20017;-26
2022/07/31 08:59:25;;;;;;;0.95;0.80;;;25.10;84.70;;;;;;5034554;28;20022;-26
2022/07/31 09:01:51;;;;;;;0.90;0.80;;;25.10;84.70;;;;;;5034689;28;20021;-26
2022/07/31 09:04:17;;;;;;;1.05;0.90;;;25.20;84.70;;;;;;5034678;28;20048;-26
2022/07/31 09:06:43;;;;;;;1.02;0.80;;;25.20;84.70;;;;;;5034705;28;20033;-26
2022/07/31 09:09:08;;;;;;;1.20;0.90;;;25.20;84.70;;;;;;5034406;28;20082;-25
2022/07/31 09:11:46;;;;;;;1.02;0.90;;;25.20;84.60;;;;;;5034314;28;20032;-26
2022/07/31 09:14:12;;;;;;;1.40;0.90;;;25.30;84.50;;;;;;5034491;28;20100;-26
2022/07/31 09:16:46;;;;;;;1.00;0.80;;;25.20;84.50;;;;;;5034441;28;20026;-25
2022/07/31 09:19:13;;;;;;;0.80;0.80;;;25.30;84.50;;;;;;5034244;28;20486;-25
2022/07/31 09:21:43;;;;;;;1.08;0.80;;;25.30;84.30;;;;;;5034325;28;20021;-25
2022/07/31 09:24:11;;;;;;;1.15;0.60;;;25.40;84.40;;;;;;5034085;28;20026;-25
2022/07/31 09:26:39;;;;;;;0.70;0.70;;;25.40;84.40;;;;;;5034307;28;20021;-26
2022/07/31 09:29:11;;;;;;;2.05;0.80;;;25.30;84.20;;;;;;5034004;28;20052;-26
2022/07/31 09:31:38;;;;;;;1.27;0.70;;;25.40;84.30;;;;;;5034156;28;20028;-26
2022/07/31 09:34:04;;;;;;;1.02;0.82;;;25.40;84.20;;;;;;5033969;28;20030;-26
2022/07/31 09:36:31;;;;;;;1.23;0.90;;;25.40;84.10;;;;;;5034021;28;20493;-26
2022/07/31 09:38:58;;;;;;;1.10;0.90;;;25.50;84.20;;;;;;5033792;28;20030;-26
2022/07/31 09:41:24;;;;;;;1.15;0.88;;;25.40;84.10;;;;;;5034238;28;20018;-26
2022/07/31 09:44:04;;;;;;;1.13;0.70;;;25.50;84.10;;;;;;5033930;28;20436;-26
2022/07/31 09:46:45;;;;;;;1.25;0.98;;;25.50;84.00;;;;;;5033961;28;20029;-25
2022/07/31 09:49:11;;;;;;;1.02;0.80;;;25.50;84.10;;;;;;5033595;28;20455;-25
2022/07/31 09:51:44;;;;;;;1.42;1.00;;;25.50;84.00;;;;;;5033671;28;20026;-26
2022/07/31 09:54:21;;;;;;;0.82;0.80;;;25.50;84.00;;;;;;5033790;28;20020;-26
2022/07/31 09:56:48;;;;;;;1.45;0.95;;;25.50;84.10;;;;;;5014936;28;20036;-26
2022/07/31 09:59:14;;;;;;;0.88;0.80;;;25.50;84.10;;;;;;5033872;28;20495;-26
2022/07/31 10:01:40;;;;;;;0.70;0.70;;;25.50;84.10;;;;;;5033502;28;20056;-26
2022/07/31 10:04:08;;;;;;;0.95;0.70;;;25.40;84.00;;;;;;5033518;28;20025;-25
2022/07/31 10:06:34;;;;;;;1.15;0.80;;;25.50;84.20;;;;;;5033513;28;20021;-25
2022/07/31 10:09:02;;;;;;;1.45;0.82;;;25.40;84.10;;;;;;5033275;28;20028;-25
2022/07/31 10:11:30;;;;;;;1.10;0.90;;;25.40;85.00;;;;;;5033340;28;20038;-26
2022/07/31 10:14:00;;;;;;;1.98;0.95;;;25.40;84.30;;;;;;5033248;28;20108;-25
2022/07/31 10:16:28;;;;;;;1.00;0.88;;;25.40;84.40;;;;;;5033581;28;20072;-25
2022/07/31 10:18:59;;;;;;;1.02;0.90;;;25.30;84.30;;;;;;5033030;28;20014;-26
2022/07/31 10:21:36;;;;;;;1.15;0.80;;;25.40;84.40;;;;;;5033181;28;20104;-25
2022/07/31 10:24:03;;;;;;;1.08;0.73;;;25.40;84.50;;;;;;5033634;28;20391;-26
2022/07/31 10:26:29;;;;;;;0.68;0.68;;;25.40;85.10;;;;;;5032999;28;20025;-26
2022/07/31 10:28:56;;;;;;;0.82;0.80;;;25.40;84.30;;;;;;5032840;28;20029;-25
2022/07/31 10:31:22;;;;;;;1.17;0.73;;;25.40;84.30;;;;;;5032999;28;20106;-25
2022/07/31 10:33:48;;;;;;;1.35;0.85;;;25.40;84.20;;;;;;5032860;28;20402;-25
2022/07/31 10:36:20;;;;;;;1.17;0.80;;;25.40;84.20;;;;;;5032932;28;20021;-25
2022/07/31 10:38:59;;;;;;;0.70;0.70;;;25.40;84.20;;;;;;5032692;28;20143;-25
2022/07/31 10:41:49;;;;;;;1.10;0.80;;;25.40;84.20;;;;;;5015425;28;20475;-25
2022/07/31 10:44:39;;;;;;;0.70;0.70;;;25.40;84.30;;;;;;5032776;28;20104;-25
2022/07/31 10:47:15;;;;;;;1.00;0.80;;;25.40;84.30;;;;;;5032793;28;20036;-26
2022/07/31 10:49:47;;;;;;;1.20;1.00;;;25.40;84.40;;;;;;5032372;28;20033;-25
2022/07/31 10:52:24;;;;;;;0.98;0.70;;;25.30;84.30;;;;;;5032625;28;20028;-25
2022/07/31 10:54:50;;;;;;;1.38;0.88;;;25.30;84.40;;;;;;5032717;28;20072;-26
2022/07/31 10:57:28;;;;;;;1.23;0.75;;;25.30;84.40;;;;;;5032562;28;20029;-25
2022/07/31 10:59:54;;;;;;;1.52;1.00;;;25.30;84.40;;;;;;5032206;28;20506;-26
2022/07/31 11:02:28;;;;;;;1.25;0.90;;;25.30;84.40;;;;;;5032516;28;20026;-25
2022/07/31 11:05:09;;;;;;;1.02;0.80;;;25.30;84.50;;;;;;5032351;28;20093;-26
2022/07/31 11:07:34;;;;;;;1.15;0.75;;;25.30;84.50;;;;;;5032191;28;20026;-25
2022/07/31 11:10:15;;;;;;;1.08;0.73;;;25.20;84.50;;;;;;5032095;28;20430;-26
2022/07/31 11:12:41;;;;;;;1.00;0.80;;;25.30;84.50;;;;;;5032371;28;20017;-26
2022/07/31 11:15:23;;;;;;;1.10;0.82;;;25.30;84.60;;;;;;5032290;28;20033;-26
2022/07/31 11:17:49;;;;;;;0.70;0.68;;;25.30;84.50;;;;;;5032227;28;20044;-25
2022/07/31 11:20:22;;;;;;;1.73;1.00;;;25.30;84.40;;;;;;5031999;28;20034;-26
2022/07/31 11:22:57;;;;;;;1.00;0.75;;;25.30;84.40;;;;;;5032518;28;20116;-25
2022/07/31 11:25:24;;;;;;;1.10;0.75;;;25.40;84.40;;;;;;5032187;28;20029;-26
2022/07/31 11:27:50;;;;;;;1.05;0.70;;;25.40;84.30;;;;;;5032107;28;20030;-25
2022/07/31 11:30:16;;;;;;;0.88;0.70;;;25.40;84.30;;;;;;5031876;28;20078;-26
2022/07/31 11:32:49;;;;;;;1.10;0.80;;;25.50;84.20;;;;;;5032096;28;20013;-25
2022/07/31 11:35:30;;;;;;;2.63;0.70;;;25.50;84.10;;;;;;5055077;22;20038;-24
2022/07/31 11:37:59;;;;;;;0.95;0.80;;;25.50;84.10;;;;;;5032367;28;20439;-24
2022/07/31 11:40:26;;;;;;;1.23;0.85;;;25.50;84.00;;;;;;5015209;28;20029;-24
2022/07/31 11:42:52;;;;;;;0.90;0.80;;;25.50;84.00;;;;;;5033724;28;20509;-24
2022/07/31 11:45:19;;;;;;;1.15;0.75;;;25.50;84.00;;;;;;5034786;28;20022;-24
2022/07/31 11:47:46;;;;;;;1.85;0.80;;;25.50;84.00;;;;;;5034157;28;20029;-24
2022/07/31 11:50:13;;;;;;;1.30;0.93;;;25.50;84.00;;;;;;5032609;28;20028;-24
2022/07/31 11:52:43;;;;;;;1.60;0.80;;;25.50;84.00;;;;;;5033093;28;20036;-24
2022/07/31 11:55:12;;;;;;;1.23;0.90;;;25.50;84.10;;;;;;5014813;28;20441;-24
2022/07/31 11:57:39;;;;;;;1.67;0.70;;;25.50;84.10;;;;;;5032577;28;20087;-24
2022/07/31 12:00:13;;;;;;;1.15;0.90;;;25.50;84.10;;;;;;5032698;28;20045;-24
2022/07/31 12:02:44;;;;;;;1.77;0.85;;;25.50;84.10;;;;;;5032633;28;20048;-24
2022/07/31 12:05:12;;;;;;;1.27;0.80;;;25.50;84.10;;;;;;5032574;28;20506;-23
2022/07/31 12:07:39;;;;;;;0.88;0.80;;;25.50;84.10;;;;;;5033170;28;20443;-23
2022/07/31 12:10:07;;;;;;;1.58;0.70;;;25.50;84.10;;;;;;5035636;28;20114;-24
2022/07/31 12:12:32;;;;;;;1.35;0.75;;;25.50;84.20;;;;;;5039012;28;20017;-24
2022/07/31 12:14:58;;;;;;;1.38;0.98;;;25.50;84.10;;;;;;5034235;28;20108;-24
2022/07/31 12:17:24;;;;;;;1.15;0.80;;;25.50;84.10;;;;;;5032467;28;20078;-24
2022/07/31 12:19:50;;;;;;;1.10;0.65;;;25.50;84.80;;;;;;5033996;28;20451;-24
2022/07/31 12:22:19;;;;;;;1.85;0.82;;;25.60;84.00;;;;;;5036384;28;20025;-24
2022/07/31 12:24:48;;;;;;;1.30;0.95;;;25.60;84.00;;;;;;5036104;28;20026;-24
2022/07/31 12:27:16;;;;;;;0.95;0.85;;;25.60;84.00;;;;;;5036211;28;20425;-24
2022/07/31 12:29:42;;;;;;;0.75;0.75;;;25.60;83.90;;;;;;5035944;28;20104;-23
2022/07/31 12:32:08;;;;;;;1.00;0.80;;;25.60;83.90;;;;;;5036158;28;20076;-24
2022/07/31 12:34:41;;;;;;;2.10;0.90;;;25.60;84.00;;;;;;5035638;28;20495;-24
2022/07/31 12:37:15;;;;;;;1.15;0.80;;;25.60;84.00;;;;;;5035888;28;20033;-24
2022/07/31 12:39:50;;;;;;;1.10;0.70;;;25.60;84.80;;;;;;5035498;28;20486;-24
2022/07/31 12:42:31;;;;;;;0.75;0.60;;;25.60;84.10;;;;;;5035727;28;20025;-24
2022/07/31 12:45:00;;;;;;;0.80;0.80;;;25.60;84.10;;;;;;5018237;28;20021;-24
2022/07/31 12:47:30;;;;;;;1.63;0.80;;;25.50;84.00;;;;;;5035668;28;20097;-24
2022/07/31 12:49:57;;;;;;;1.95;0.95;;;25.50;84.00;;;;;;5035591;28;20025;-24
2022/07/31 12:52:24;;;;;;;0.75;0.70;;;25.50;84.10;;;;;;5035390;28;20018;-24
2022/07/31 12:54:50;;;;;;;1.10;0.82;;;25.50;84.00;;;;;;5035247;28;20382;-24